Time;durP1;ratioP1;P1;durP2;ratioP2;P2;SDS_P1;SDS_P2;PMS_P1;PMS_P2;Temp;Humidity;BMP_temperature;BMP_pressure;BME280_temperature;BME280_humidity;BME280_pressure;Samples;Min_cycle;Max_cycle;Signal;HPM_P1;HPM_P2
2024/01/01 00:01:56;;;;;;;;;77.40;67.00;;;;;9.39;100.00;97859.81;6212302;28;97037;-56
2024/01/01 00:04:59;;;;;;;;;75.40;63.00;;;;;9.38;100.00;97860.06;6233135;28;96803;-57
2024/01/01 00:08:02;;;;;;;;;73.60;61.60;;;;;9.37;100.00;97864.63;6235410;28;96463;-56
2024/01/01 00:11:07;;;;;;;;;72.20;59.80;;;;;9.37;100.00;97847.66;6236774;28;96457;-56
2024/01/01 00:14:12;;;;;;;;;72.80;59.40;;;;;9.37;100.00;97848.50;6236951;28;96342;-57
2024/01/01 00:17:15;;;;;;;;;63.50;50.00;;;;;9.30;100.00;97847.78;6239334;28;96257;-56
2024/01/01 00:20:18;;;;;;;;;72.00;57.00;;;;;9.38;100.00;97855.47;6213416;28;96451;-57
2024/01/01 00:23:22;;;;;;;;;72.50;59.00;;;;;9.36;100.00;97852.22;6229705;28;96355;-56
2024/01/01 00:26:25;;;;;;;;;70.00;56.75;;;;;9.34;100.00;97848.13;6238718;28;96268;-55
2024/01/01 00:29:36;;;;;;;;;68.50;52.75;;;;;9.36;100.00;97848.72;6238738;28;96232;-56
2024/01/01 00:32:39;;;;;;;;;71.00;55.00;;;;;9.37;100.00;97843.13;6217701;28;96376;-57
2024/01/01 00:35:43;;;;;;;;;65.60;52.00;;;;;9.37;100.00;97837.72;6236228;28;96372;-56
2024/01/01 00:38:46;;;;;;;;;70.50;56.00;;;;;9.40;100.00;97829.16;6237995;28;96398;-57
2024/01/01 00:41:49;;;;;;;;;67.00;53.00;;;;;9.42;100.00;97837.84;6238465;28;96258;-56
2024/01/01 00:44:53;;;;;;;;;65.80;51.80;;;;;9.45;100.00;97831.13;6239049;28;96324;-57
2024/01/01 00:47:56;;;;;;;;;70.00;56.25;;;;;9.45;100.00;97833.84;6221532;28;96333;-56
2024/01/01 00:51:00;;;;;;;;;75.80;65.40;;;;;9.45;100.00;97840.03;6239161;28;96256;-56
2024/01/01 00:54:03;;;;;;;;;78.00;69.00;;;;;9.48;100.00;97836.06;6235739;28;96293;-55
2024/01/01 00:57:06;;;;;;;;;81.50;69.75;;;;;9.54;100.00;97845.84;6232887;28;98328;-56
2024/01/01 01:00:12;;;;;;;;;75.60;64.00;;;;;9.57;100.00;97845.38;6211320;28;98492;-55
2024/01/01 01:03:15;;;;;;;;;75.40;64.60;;;;;9.47;100.00;97832.56;6233520;28;96287;-57
2024/01/01 01:06:19;;;;;;;;;74.00;65.00;;;;;9.64;100.00;97842.53;6232690;28;96277;-57
2024/01/01 01:09:27;;;;;;;;;73.00;61.00;;;;;9.57;100.00;97830.06;6212278;28;96455;-56
2024/01/01 01:12:30;;;;;;;;;70.00;56.67;;;;;9.65;100.00;97844.97;6236686;28;96429;-55
2024/01/01 01:15:35;;;;;;;;;67.00;53.00;;;;;9.61;100.00;97849.22;6236582;28;96846;-56
2024/01/01 01:18:38;;;;;;;;;63.00;51.00;;;;;9.58;100.00;97860.44;6236259;28;96971;-57
2024/01/01 01:21:41;;;;;;;;;62.00;50.00;;;;;9.56;100.00;97852.63;6224923;28;96411;-56
2024/01/01 01:24:44;;;;;;;;;62.40;49.40;;;;;9.56;100.00;97846.44;6236180;28;96990;-56
2024/01/01 01:27:47;;;;;;;;;63.25;51.00;;;;;9.53;100.00;97844.19;6236935;28;96356;-57
2024/01/01 01:30:52;;;;;;;;;63.75;50.75;;;;;9.50;100.00;97853.59;6234865;28;96419;-56
2024/01/01 01:33:55;;;;;;;;;72.00;60.00;;;;;9.49;100.00;97849.25;6235542;28;96277;-56
2024/01/01 01:36:58;;;;;;;;;72.00;60.60;;;;;9.50;100.00;97845.50;6236333;28;96338;-56
2024/01/01 01:40:03;;;;;;;;;78.00;68.50;;;;;9.54;100.00;97833.22;6235771;28;96639;-55
2024/01/01 01:43:19;;;;;;;;;78.00;67.20;;;;;9.59;100.00;97835.16;6235686;28;96305;-56
2024/01/01 01:46:25;;;;;;;;;77.00;68.00;;;;;9.62;100.00;97832.03;6232246;28;96485;-55
2024/01/01 01:49:29;;;;;;;;;77.20;69.00;;;;;9.63;100.00;97828.25;6236570;28;96345;-55
2024/01/01 01:52:32;;;;;;;;;77.00;67.60;;;;;9.61;100.00;97824.19;6236519;28;96582;-55
2024/01/01 01:55:35;;;;;;;;;75.60;66.60;;;;;9.60;100.00;97831.44;6235648;28;96243;-56
2024/01/01 01:58:40;;;;;;;;;70.00;57.00;;;;;9.56;100.00;97830.28;6219485;28;96940;-55
2024/01/01 02:01:45;;;;;;;;;70.60;57.60;;;;;9.49;100.00;97826.91;6240599;22;96412;-57
2024/01/01 02:04:49;;;;;;;;;69.25;53.00;;;;;9.47;100.00;97824.47;6220184;28;96714;-60
2024/01/01 02:07:52;;;;;;;;;67.60;53.20;;;;;9.39;100.00;97832.91;6226081;28;96493;-60
2024/01/01 02:10:55;;;;;;;;;72.00;57.50;;;;;9.28;100.00;97831.09;6210545;28;96434;-61
2024/01/01 02:14:08;;;;;;;;;74.00;62.25;;;;;9.23;100.00;97817.56;6184089;28;96253;-60
2024/01/01 02:17:13;;;;;;;;;70.00;55.40;;;;;9.20;100.00;97823.38;6184957;28;96321;-60
2024/01/01 02:20:16;;;;;;;;;72.00;60.40;;;;;9.22;100.00;97823.97;6201417;28;96356;-60
2024/01/01 02:23:24;;;;;;;;;71.00;59.00;;;;;9.25;100.00;97836.13;6193015;28;96213;-61
2024/01/01 02:26:28;;;;;;;;;72.20;57.20;;;;;9.19;100.00;97829.03;6211098;28;96248;-60
2024/01/01 02:29:31;;;;;;;;;72.00;57.40;;;;;9.18;100.00;97827.38;6181999;28;97524;-60
2024/01/01 02:32:34;;;;;;;;;70.80;56.60;;;;;9.14;100.00;97833.22;6199080;28;96430;-60
2024/01/01 02:35:38;;;;;;;;;69.50;56.50;;;;;9.10;100.00;97821.31;6214467;28;96407;-61
2024/01/01 02:38:42;;;;;;;;;72.60;59.40;;;;;9.15;100.00;97820.59;6214708;28;96507;-60
2024/01/01 02:41:45;;;;;;;;;75.00;63.00;;;;;9.11;100.00;97824.81;6214896;28;96466;-61
2024/01/01 02:44:48;;;;;;;;;71.20;58.00;;;;;9.09;100.00;97819.69;6197356;28;96731;-60
2024/01/01 02:47:53;;;;;;;;;71.80;56.80;;;;;9.10;100.00;97809.75;6188644;28;96895;-61
2024/01/01 02:50:56;;;;;;;;;73.33;60.33;;;;;9.11;100.00;97790.69;6189616;28;96667;-60
2024/01/01 02:54:01;;;;;;;;;73.80;60.80;;;;;9.16;100.00;97786.47;6190066;28;96937;-60
2024/01/01 02:57:04;;;;;;;;;73.20;62.00;;;;;9.22;100.00;97791.72;6212945;28;96466;-60
2024/01/01 03:00:09;;;;;;;;;75.25;63.00;;;;;9.22;100.00;97791.72;6208072;28;96329;-60
2024/01/01 03:03:13;;;;;;;;;72.33;60.67;;;;;9.31;100.00;97811.78;6226211;28;97484;-61
2024/01/01 03:06:18;;;;;;;;;71.50;57.75;;;;;9.31;100.00;97816.34;6214022;28;96465;-60
2024/01/01 03:09:23;;;;;;;;;73.60;61.40;;;;;9.32;100.00;97821.50;6214690;28;96456;-60
2024/01/01 03:12:27;;;;;;;;;73.40;61.60;;;;;9.35;100.00;97834.44;6220943;28;97144;-60
2024/01/01 03:15:30;;;;;;;;;70.60;59.00;;;;;9.38;100.00;97842.03;6227355;28;96322;-62
2024/01/01 03:18:33;;;;;;;;;73.40;59.40;;;;;9.43;100.00;97846.72;6214132;28;96387;-62
2024/01/01 03:21:38;;;;;;;;;70.00;56.00;;;;;9.44;100.00;97842.94;6213803;28;96247;-63
2024/01/01 03:24:43;;;;;;;;;75.00;59.75;;;;;9.44;100.00;97857.22;6225461;28;96630;-62
2024/01/01 03:27:47;;;;;;;;;72.80;60.00;;;;;9.44;100.00;97854.53;6200815;28;96375;-62
2024/01/01 03:30:50;;;;;;;;;69.60;54.20;;;;;9.40;100.00;97845.31;6197204;28;96999;-62
2024/01/01 03:33:53;;;;;;;;;66.60;52.00;;;;;9.40;100.00;97845.31;6217019;28;96332;-63
2024/01/01 03:36:56;;;;;;;;;71.00;55.40;;;;;9.33;100.00;97841.97;6213462;28;96607;-62
2024/01/01 03:40:00;;;;;;;;;67.00;53.00;;;;;9.14;100.00;97827.03;6178071;28;99694;-63
2024/01/01 03:43:04;;;;;;;;;72.80;55.20;;;;;9.04;100.00;97832.22;6212068;28;96424;-63
2024/01/01 03:46:07;;;;;;;;;68.40;54.20;;;;;8.97;100.00;97836.91;6178264;28;98561;-62
2024/01/01 03:49:10;;;;;;;;;68.00;53.00;;;;;8.93;100.00;97827.69;6224289;28;96200;-62
2024/01/01 03:52:14;;;;;;;;;68.00;54.60;;;;;8.92;100.00;97813.41;6213065;28;96563;-62
2024/01/01 03:55:18;;;;;;;;;70.75;54.75;;;;;8.92;100.00;97804.53;6197607;28;96369;-62
2024/01/01 03:58:23;;;;;;;;;67.75;53.50;;;;;8.94;100.00;97794.38;6213110;28;96413;-61
2024/01/01 04:01:26;;;;;;;;;67.00;52.00;;;;;8.96;100.00;97797.63;6205659;28;96642;-62
2024/01/01 04:04:29;;;;;;;;;67.00;53.00;;;;;8.97;100.00;97792.03;6213142;28;96282;-62
2024/01/01 04:07:32;;;;;;;;;66.00;52.60;;;;;9.02;100.00;97786.75;6212761;28;96345;-62
2024/01/01 04:10:37;;;;;;;;;67.40;53.00;;;;;8.98;100.00;97766.78;6212595;28;96321;-62
2024/01/01 04:13:41;;;;;;;;;63.00;51.00;;;;;9.14;100.00;97782.13;6215755;28;96438;-62
2024/01/01 04:16:44;;;;;;;;;69.20;55.20;;;;;9.21;100.00;97781.19;6206229;28;96536;-62
2024/01/01 04:19:47;;;;;;;;;69.00;52.75;;;;;9.29;100.00;97773.53;6226128;28;96241;-62
2024/01/01 04:22:51;;;;;;;;;61.00;49.00;;;;;9.39;100.00;97768.34;6212734;28;96398;-60
2024/01/01 04:25:56;;;;;;;;;65.60;50.60;;;;;9.47;100.00;97770.69;6220540;28;97832;-58
2024/01/01 04:28:59;;;;;;;;;63.80;50.20;;;;;9.55;100.00;97764.91;6201912;28;96258;-58
2024/01/01 04:32:03;;;;;;;;;64.60;50.60;;;;;9.68;100.00;97765.63;6225503;28;96369;-57
2024/01/01 04:35:07;;;;;;;;;64.50;49.50;;;;;9.75;100.00;97766.31;6223930;28;96536;-57
2024/01/01 04:38:10;;;;;;;;;62.00;49.20;;;;;9.85;100.00;97778.06;6198013;28;96250;-58
2024/01/01 04:41:15;;;;;;;;;65.40;51.20;;;;;9.91;100.00;97776.28;6227565;28;96275;-59
2024/01/01 04:44:18;;;;;;;;;62.40;48.00;;;;;9.96;100.00;97773.66;6218766;28;97167;-58
2024/01/01 04:47:22;;;;;;;;;56.80;45.00;;;;;10.09;100.00;97765.25;6219084;28;96286;-58
2024/01/01 04:50:25;;;;;;;;;58.00;46.00;;;;;10.18;100.00;97758.41;6219326;28;96323;-58
2024/01/01 04:53:29;;;;;;;;;58.00;46.00;;;;;10.28;100.00;97760.44;6200000;28;96875;-57
2024/01/01 04:56:33;;;;;;;;;60.00;47.40;;;;;10.35;100.00;97756.53;6218407;28;96243;-57
2024/01/01 04:59:36;;;;;;;;;57.60;47.00;;;;;10.42;100.00;97748.25;6219906;28;96339;-58
2024/01/01 05:02:39;;;;;;;;;60.60;46.00;;;;;10.46;100.00;97746.69;6214562;28;96791;-57
2024/01/01 05:05:42;;;;;;;;;58.40;46.00;;;;;10.46;100.00;97741.28;6218280;28;96844;-58
2024/01/01 05:08:45;;;;;;;;;62.00;49.00;;;;;10.60;100.00;97733.69;6219296;28;96418;-58
2024/01/01 05:11:50;;;;;;;;;56.00;46.00;;;;;10.64;100.00;97742.91;6198066;28;96657;-58
2024/01/01 05:14:53;;;;;;;;;60.00;47.00;;;;;10.69;100.00;97738.41;6217758;28;96328;-58
2024/01/01 05:17:56;;;;;;;;;60.00;48.00;;;;;10.75;100.00;97740.06;6207986;28;96296;-58
2024/01/01 05:20:59;;;;;;;;;59.00;46.60;;;;;10.76;100.00;97751.66;6181825;28;97319;-58
2024/01/01 05:24:02;;;;;;;;;63.00;49.40;;;;;10.73;100.00;97744.09;6216698;28;96403;-57
2024/01/01 05:27:08;;;;;;;;;65.00;50.00;;;;;10.72;100.00;97743.28;6218495;28;96319;-57
2024/01/01 05:30:12;;;;;;;;;62.60;50.60;;;;;10.70;100.00;97729.22;6202806;28;96881;-58
2024/01/01 05:33:15;;;;;;;;;69.00;52.00;;;;;10.71;100.00;97730.03;6215761;28;96585;-58
2024/01/01 05:36:19;;;;;;;;;67.00;51.00;;;;;10.72;100.00;97727.09;6214764;28;96983;-58
2024/01/01 05:39:22;;;;;;;;;64.40;50.60;;;;;10.68;100.00;97709.81;6192838;28;98506;-58
2024/01/01 05:42:28;;;;;;;;;64.40;50.00;;;;;10.66;100.00;97709.22;6184301;28;96853;-58
2024/01/01 05:45:31;;;;;;;;;64.75;51.00;;;;;10.64;100.00;97702.47;6183847;28;98726;-58
2024/01/01 05:48:34;;;;;;;;;65.00;50.00;;;;;10.67;100.00;97704.66;6218613;28;96966;-57
2024/01/01 05:51:43;;;;;;;;;62.00;48.75;;;;;10.72;100.00;97710.94;6218894;28;96405;-58
2024/01/01 05:54:46;;;;;;;;;62.60;49.60;;;;;10.64;100.00;97689.81;6206463;28;98517;-58
2024/01/01 05:57:51;;;;;;;;;63.20;50.00;;;;;10.79;100.00;97703.47;6215777;28;97064;-58
2024/01/01 06:00:54;;;;;;;;;66.00;50.60;;;;;10.80;100.00;97702.38;6214533;28;96695;-59
2024/01/01 06:03:57;;;;;;;;;61.20;48.00;;;;;10.81;100.00;97698.63;6200118;28;97343;-58
2024/01/01 06:07:00;;;;;;;;;62.60;49.00;;;;;10.81;100.00;97704.03;6220722;28;96581;-58
2024/01/01 06:10:03;;;;;;;;;63.00;49.60;;;;;10.79;100.00;97695.38;6221002;28;96458;-59
2024/01/01 06:13:08;;;;;;;;;62.00;50.00;;;;;10.80;100.00;97688.91;6221794;28;96893;-57
2024/01/01 06:16:13;;;;;;;;;62.20;49.20;;;;;10.81;100.00;97693.25;6237917;28;96286;-58
2024/01/01 06:19:16;;;;;;;;;62.00;49.00;;;;;10.83;100.00;97698.38;6221538;28;96924;-58
2024/01/01 06:22:19;;;;;;;;;63.00;49.80;;;;;10.84;100.00;97697.31;6222788;28;96277;-58
2024/01/01 06:25:22;;;;;;;;;64.80;50.40;;;;;10.83;100.00;97701.09;6222560;28;96315;-58
2024/01/01 06:28:27;;;;;;;;;64.20;51.00;;;;;10.80;100.00;97706.97;6222384;28;96217;-59
2024/01/01 06:31:30;;;;;;;;;64.75;52.00;;;;;10.78;100.00;97707.22;6222529;28;96384;-58
2024/01/01 06:34:33;;;;;;;;;64.00;51.00;;;;;10.76;100.00;97706.66;6222433;28;96267;-58
2024/01/01 06:37:36;;;;;;;;;63.00;51.00;;;;;10.78;100.00;97714.50;6222282;28;96888;-58
2024/01/01 06:40:40;;;;;;;;;63.60;50.80;;;;;10.76;100.00;97719.31;6196289;28;96745;-58
2024/01/01 06:43:44;;;;;;;;;70.50;53.25;;;;;10.65;100.00;97752.63;6189230;28;96835;-64
2024/01/01 06:46:47;;;;;;;;;66.00;53.00;;;;;10.54;100.00;97757.06;6226159;28;96872;-62
2024/01/01 06:49:50;;;;;;;;;69.60;53.00;;;;;10.46;100.00;97751.28;6225817;28;96224;-64
2024/01/01 06:52:54;;;;;;;;;67.40;51.00;;;;;10.33;100.00;97742.47;6226788;28;96280;-64
2024/01/01 06:55:57;;;;;;;;;64.00;50.00;;;;;10.42;100.00;97756.34;6210663;28;96553;-64
2024/01/01 06:59:01;;;;;;;;;62.00;49.00;;;;;10.44;100.00;97773.06;6228106;28;96119;-64
2024/01/01 07:02:05;;;;;;;;;60.00;46.25;;;;;10.50;100.00;97774.78;6237337;28;96243;-63
2024/01/01 07:05:09;;;;;;;;;58.60;46.00;;;;;10.56;100.00;97784.56;6236957;28;96333;-64
2024/01/01 07:08:12;;;;;;;;;60.00;48.00;;;;;10.61;100.00;97783.81;6240061;28;96270;-63
2024/01/01 07:11:15;;;;;;;;;65.00;50.80;;;;;10.54;100.00;97783.19;6227756;28;96192;-63
2024/01/01 07:14:20;;;;;;;;;62.00;49.00;;;;;10.51;100.00;97786.34;6209090;28;98438;-64
2024/01/01 07:17:23;;;;;;;;;63.00;49.00;;;;;10.52;100.00;97775.34;6245721;28;96313;-64
2024/01/01 07:20:27;;;;;;;;;63.00;49.00;;;;;10.55;100.00;97763.25;6221529;28;96252;-65
2024/01/01 07:23:30;;;;;;;;;64.00;50.00;;;;;10.54;100.00;97761.63;6241995;28;96366;-63
2024/01/01 07:26:33;;;;;;;;;64.00;50.00;;;;;10.59;100.00;97756.31;6243343;28;96981;-63
2024/01/01 07:29:37;;;;;;;;;61.60;48.00;;;;;10.60;100.00;97752.56;6231730;28;96264;-64
2024/01/01 07:32:41;;;;;;;;;64.00;48.00;;;;;10.61;100.00;97759.53;6242921;28;96901;-63
2024/01/01 07:35:44;;;;;;;;;59.60;46.60;;;;;10.64;100.00;97753.69;6220491;28;96679;-63
2024/01/01 07:38:47;;;;;;;;;60.00;46.40;;;;;10.66;100.00;97756.91;6217666;28;96254;-64
2024/01/01 07:41:51;;;;;;;;;59.25;46.00;;;;;10.68;100.00;97752.09;6213935;28;96742;-64
2024/01/01 07:44:57;;;;;;;;;57.80;46.00;;;;;10.66;100.00;97759.63;6214769;28;98689;-64
2024/01/01 07:48:00;;;;;;;;;58.00;47.00;;;;;10.68;100.00;97762.88;6227074;28;96197;-63
2024/01/01 07:51:04;;;;;;;;;58.80;46.00;;;;;10.67;100.00;97763.94;6227533;28;96483;-63
2024/01/01 07:54:07;;;;;;;;;58.00;46.25;;;;;10.65;100.00;97758.78;6206221;28;96592;-62
2024/01/01 07:57:10;;;;;;;;;58.00;46.00;;;;;10.76;100.00;97759.75;6213618;28;96300;-61
2024/01/01 08:00:17;;;;;;;;;57.00;45.00;;;;;10.79;100.00;97764.66;6210790;28;96402;-61
2024/01/01 08:03:21;;;;;;;;;58.80;46.20;;;;;10.78;100.00;97766.53;6191806;28;96731;-61
2024/01/01 08:06:24;;;;;;;;;59.33;47.00;;;;;10.82;100.00;97769.53;6210162;28;97229;-62
2024/01/01 08:09:27;;;;;;;;;58.60;45.40;;;;;10.81;100.00;97776.81;6210503;28;96479;-62
2024/01/01 08:12:30;;;;;;;;;57.75;46.00;;;;;10.83;100.00;97768.47;6192332;28;98378;-62
2024/01/01 08:15:35;;;;;;;;;59.60;47.20;;;;;10.82;100.00;97785.72;6212962;28;97035;-62
2024/01/01 08:18:38;;;;;;;;;57.20;45.40;;;;;10.88;100.00;97771.25;6213281;28;96478;-62
2024/01/01 08:21:41;;;;;;;;;55.20;44.00;;;;;10.86;100.00;97771.47;6213053;28;97036;-62
2024/01/01 08:24:44;;;;;;;;;60.00;47.00;;;;;10.82;100.00;97769.53;6212954;28;96429;-62
2024/01/01 08:27:47;;;;;;;;;58.00;46.00;;;;;10.79;100.00;97762.78;6195168;28;96247;-62
2024/01/01 08:30:51;;;;;;;;;60.75;46.00;;;;;10.76;100.00;97759.75;6212727;28;96555;-62
2024/01/01 08:33:55;;;;;;;;;58.00;46.00;;;;;10.76;100.00;97763.25;6212983;28;96427;-62
2024/01/01 08:36:59;;;;;;;;;58.25;46.00;;;;;10.73;100.00;97758.38;6212470;28;96318;-62
2024/01/01 08:40:03;;;;;;;;;60.00;46.40;;;;;10.64;100.00;97761.75;6212810;28;96367;-62
2024/01/01 08:43:06;;;;;;;;;56.00;45.60;;;;;10.68;100.00;97754.81;6180478;28;98678;-62
2024/01/01 08:46:10;;;;;;;;;56.00;43.25;;;;;10.69;100.00;97764.53;6204282;28;96567;-62
2024/01/01 08:49:13;;;;;;;;;52.60;42.00;;;;;10.70;100.00;97764.25;6202714;28;97096;-62
2024/01/01 08:52:16;;;;;;;;;55.25;43.00;;;;;10.68;100.00;97769.09;6210609;28;96379;-62
2024/01/01 08:55:20;;;;;;;;;52.25;43.00;;;;;10.69;100.00;97772.63;6212767;28;96989;-62
2024/01/01 08:58:23;;;;;;;;;50.80;40.80;;;;;10.68;100.00;97771.78;6195592;28;96381;-62
2024/01/01 09:01:27;;;;;;;;;50.60;41.20;;;;;10.63;100.00;97769.03;6201394;28;96369;-62
2024/01/01 09:04:30;;;;;;;;;48.00;39.00;;;;;10.55;100.00;97774.84;6187178;28;96269;-61
2024/01/01 09:07:33;;;;;;;;;46.40;38.40;;;;;10.49;100.00;97770.47;6187464;28;96570;-62
2024/01/01 09:10:36;;;;;;;;;43.25;36.00;;;;;10.49;100.00;97769.63;6188205;28;96267;-61
2024/01/01 09:13:40;;;;;;;;;32.80;29.60;;;;;10.42;100.00;97769.81;6185302;28;96970;-62
2024/01/01 09:16:45;;;;;;;;;31.00;28.00;;;;;10.31;100.00;97760.75;6184478;28;96221;-62
2024/01/01 09:19:48;;;;;;;;;24.00;22.60;;;;;10.40;100.00;97775.47;6193365;28;96436;-62
2024/01/01 09:22:53;;;;;;;;;24.00;22.67;;;;;10.35;100.00;97763.78;6210503;28;97318;-62
2024/01/01 09:25:57;;;;;;;;;29.40;27.00;;;;;10.33;100.00;97765.91;6194343;28;96678;-62
2024/01/01 09:29:01;;;;;;;;;28.00;25.00;;;;;10.23;100.00;97765.75;6208623;28;96698;-61
2024/01/01 09:32:06;;;;;;;;;31.00;27.40;;;;;10.18;100.00;97763.78;6210520;28;96200;-62
2024/01/01 09:35:09;;;;;;;;;26.40;26.00;;;;;10.10;100.00;97768.75;6210786;28;96645;-61
2024/01/01 09:38:13;;;;;;;;;26.80;25.00;;;;;10.11;100.00;97762.31;6209270;28;96355;-63
2024/01/01 09:41:19;;;;;;;;;26.00;24.00;;;;;10.12;100.00;97753.97;6192989;28;98468;-62
2024/01/01 09:44:22;;;;;;;;;27.80;24.00;;;;;10.13;100.00;97758.31;6209499;28;96457;-62
2024/01/01 09:47:30;;;;;;;;;27.80;25.80;;;;;9.96;100.00;97754.81;6211056;28;96310;-61
2024/01/01 09:50:34;;;;;;;;;25.75;23.75;;;;;10.04;100.00;97758.97;6207767;28;96526;-62
2024/01/01 09:53:38;;;;;;;;;26.00;23.60;;;;;9.94;100.00;97765.81;6209686;28;96296;-62
2024/01/01 09:56:41;;;;;;;;;22.00;21.25;;;;;9.91;100.00;97760.94;6202891;28;97448;-60
2024/01/01 09:59:44;;;;;;;;;25.40;21.80;;;;;9.85;100.00;97761.91;6194399;28;96605;-62
2024/01/01 10:02:48;;;;;;;;;22.60;21.00;;;;;9.82;100.00;97764.28;6192492;28;98142;-61
2024/01/01 10:05:51;;;;;;;;;17.80;17.00;;;;;9.73;100.00;97773.78;6209164;28;96554;-62
2024/01/01 10:09:05;;;;;;;;;14.50;14.25;;;;;9.58;100.00;97777.84;6207276;28;96762;-62
2024/01/01 10:12:10;;;;;;;;;12.25;12.00;;;;;9.47;100.00;97777.94;6210624;28;96438;-62
2024/01/01 10:15:13;;;;;;;;;14.40;13.00;;;;;9.42;100.00;97778.66;6207831;28;96390;-60
2024/01/01 10:18:18;;;;;;;;;11.75;11.00;;;;;9.27;100.00;97780.25;6195303;28;98555;-60
2024/01/01 10:21:27;;;;;;;;;10.75;10.00;;;;;9.00;100.00;97767.34;6210071;28;96468;-60
2024/01/01 10:24:30;;;;;;;;;9.40;9.00;;;;;9.03;100.00;97784.88;6210075;28;96294;-61
2024/01/01 10:27:36;;;;;;;;;13.00;12.40;;;;;8.91;100.00;97779.53;6198253;28;96632;-60
2024/01/01 10:30:46;;;;;;;;;9.20;9.20;;;;;8.87;100.00;97782.94;6209978;28;96450;-60
2024/01/01 10:33:51;;;;;;;;;9.20;9.00;;;;;8.80;100.00;97782.22;6210628;28;96953;-60
2024/01/01 10:36:55;;;;;;;;;11.20;9.20;;;;;8.76;100.00;97783.75;6207501;28;96344;-60
2024/01/01 10:40:05;;;;;;;;;11.75;11.50;;;;;8.75;100.00;97788.31;6189924;28;96363;-60
2024/01/01 10:43:10;;;;;;;;;8.00;8.00;;;;;8.66;100.00;97782.50;6209639;28;96205;-60
2024/01/01 10:46:14;;;;;;;;;7.80;7.40;;;;;8.59;100.00;97784.50;6202964;28;96722;-60
2024/01/01 10:49:24;;;;;;;;;8.00;8.00;;;;;8.52;100.00;97774.94;6207831;28;97234;-60
2024/01/01 10:52:43;;;;;;;;;9.20;8.00;;;;;8.43;100.00;97785.22;6213363;28;96314;-61
2024/01/01 10:56:01;;;;;;;;;8.00;8.00;;;;;8.38;100.00;97781.59;6213443;28;96354;-60
2024/01/01 10:59:13;;;;;;;;;5.60;5.00;;;;;8.32;100.00;97782.53;6212295;28;96314;-59
2024/01/01 11:02:17;;;;;;;;;6.60;6.60;;;;;8.19;100.00;97789.75;6208377;28;96239;-60
2024/01/01 11:05:32;;;;;;;;;8.00;8.00;;;;;8.03;100.00;97793.13;6211309;28;96452;-60
2024/01/01 11:08:36;;;;;;;;;6.50;6.50;;;;;7.89;100.00;97772.91;6214099;28;96244;-60
2024/01/01 11:11:46;;;;;;;;;8.00;8.00;;;;;7.79;100.00;97772.66;6213790;28;96753;-59
2024/01/01 11:14:50;;;;;;;;;8.75;8.00;;;;;7.63;100.00;97762.59;6211935;28;96292;-60
2024/01/01 11:17:53;;;;;;;;;7.20;7.20;;;;;7.70;100.00;97774.06;6213400;28;96258;-60
2024/01/01 11:21:00;;;;;;;;;8.00;7.40;;;;;7.57;100.00;97775.09;6211826;28;96381;-60
2024/01/01 11:24:05;;;;;;;;;7.40;7.00;;;;;7.57;100.00;97780.44;6211722;28;96839;-60
2024/01/01 11:27:23;;;;;;;;;9.00;8.00;;;;;7.46;100.00;97773.19;6211548;28;96285;-60
2024/01/01 11:30:26;;;;;;;;;7.50;7.00;;;;;7.48;100.00;97781.78;6210960;28;96357;-60
2024/01/01 11:33:31;;;;;;;;;9.00;8.00;;;;;7.30;100.00;97781.88;6211099;28;97183;-60
2024/01/01 11:36:40;;;;;;;;;8.00;7.60;;;;;7.24;100.00;97796.16;6213259;28;97872;-60
2024/01/01 11:39:43;;;;;;;;;8.80;8.00;;;;;7.17;100.00;97790.09;6209124;28;97145;-60
2024/01/01 11:42:48;;;;;;;;;12.50;12.00;;;;;7.14;100.00;97785.16;6211001;28;97458;-60
2024/01/01 11:45:55;;;;;;;;;9.00;8.50;;;;;7.09;100.00;97785.84;6215122;28;96440;-60
2024/01/01 11:49:07;;;;;;;;;8.00;8.00;;;;;6.97;100.00;97779.63;6196294;28;96497;-59
2024/01/01 11:52:17;;;;;;;;;10.00;9.00;;;;;6.93;100.00;97790.00;6214836;28;96320;-60
2024/01/01 11:55:26;;;;;;;;;8.00;7.00;;;;;6.95;100.00;97793.25;6213641;28;96331;-59
2024/01/01 11:58:29;;;;;;;;;11.00;11.00;;;;;6.98;100.00;97800.03;6213181;28;96396;-59
2024/01/01 12:01:32;;;;;;;;;10.50;9.50;;;;;6.92;100.00;97783.00;6192508;28;96687;-60
2024/01/01 12:04:36;;;;;;;;;10.00;9.00;;;;;7.08;100.00;97796.81;6211889;28;96184;-60
2024/01/01 12:07:40;;;;;;;;;12.40;12.00;;;;;7.06;100.00;97798.88;6211144;28;96646;-59
2024/01/01 12:10:43;;;;;;;;;11.00;11.00;;;;;7.13;100.00;97803.13;6194743;28;97964;-60
2024/01/01 12:13:57;;;;;;;;;12.00;11.00;;;;;7.13;100.00;97805.00;6193236;28;98526;-59
2024/01/01 12:17:01;;;;;;;;;10.00;9.00;;;;;7.14;100.00;97806.59;6214697;28;96775;-60
2024/01/01 12:20:05;;;;;;;;;12.00;11.00;;;;;7.15;100.00;97810.94;6197360;28;96709;-59
2024/01/01 12:23:15;;;;;;;;;11.40;11.00;;;;;7.26;100.00;97807.50;6219332;28;96395;-59
2024/01/01 12:26:22;;;;;;;;;13.00;11.00;;;;;7.27;100.00;97812.63;6217699;28;96711;-59
2024/01/01 12:29:25;;;;;;;;;13.20;11.00;;;;;7.21;100.00;97807.34;6212621;28;96085;-60
2024/01/01 12:32:29;;;;;;;;;14.00;11.00;;;;;7.17;100.00;97807.00;6206377;28;98749;-60
2024/01/01 12:35:32;;;;;;;;;13.00;11.00;;;;;7.18;100.00;97807.81;6219422;28;96699;-64
2024/01/01 12:38:37;;;;;;;;;14.80;12.40;;;;;7.19;100.00;97798.72;6218620;28;97080;-62
2024/01/01 12:41:40;;;;;;;;;11.80;11.60;;;;;7.24;100.00;97807.72;6236878;28;96329;-63
2024/01/01 12:44:43;;;;;;;;;13.60;12.00;;;;;7.28;100.00;97802.75;6202829;28;96561;-64
2024/01/01 12:47:46;;;;;;;;;13.40;13.00;;;;;7.32;100.00;97804.72;6219232;28;97420;-62
2024/01/01 12:50:49;;;;;;;;;11.00;11.00;;;;;7.32;100.00;97804.72;6202740;28;98804;-63
2024/01/01 12:53:57;;;;;;;;;13.00;11.75;;;;;7.34;100.00;97812.53;6221203;28;96263;-62
2024/01/01 12:57:00;;;;;;;;;14.00;11.00;;;;;7.41;100.00;97797.19;6221515;28;96273;-64
2024/01/01 13:00:04;;;;;;;;;15.00;14.00;;;;;7.43;100.00;97803.13;6209634;28;96214;-63
2024/01/01 13:03:08;;;;;;;;;14.80;13.80;;;;;7.50;100.00;97808.41;6220129;28;97731;-64
2024/01/01 13:06:14;;;;;;;;;14.00;14.00;;;;;7.56;100.00;97813.69;6219840;28;96474;-63
2024/01/01 13:09:19;;;;;;;;;13.20;12.20;;;;;7.57;100.00;97811.81;6218706;28;96426;-63
2024/01/01 13:12:22;;;;;;;;;15.00;14.50;;;;;7.59;100.00;97810.53;6219309;28;96648;-63
2024/01/01 13:15:25;;;;;;;;;15.00;14.00;;;;;7.66;100.00;97805.06;6218291;28;96757;-64
2024/01/01 13:18:29;;;;;;;;;15.00;14.00;;;;;7.75;100.00;97809.06;6206287;28;98332;-63
2024/01/01 13:21:32;;;;;;;;;15.00;14.00;;;;;7.81;100.00;97810.81;6218143;28;96814;-63
2024/01/01 13:24:38;;;;;;;;;16.00;16.00;;;;;7.76;100.00;97819.56;6200167;28;96714;-62
2024/01/01 13:27:42;;;;;;;;;15.00;14.00;;;;;7.73;100.00;97813.81;6218537;28;96233;-63
2024/01/01 13:30:45;;;;;;;;;16.80;16.00;;;;;7.69;100.00;97813.47;6216104;28;96418;-63
2024/01/01 13:33:48;;;;;;;;;18.00;17.00;;;;;7.73;100.00;97808.44;6199669;28;96822;-64
2024/01/01 13:36:51;;;;;;;;;16.60;15.00;;;;;7.84;100.00;97819.22;6184465;28;96641;-64
2024/01/01 13:39:56;;;;;;;;;18.20;17.20;;;;;7.84;100.00;97819.22;6197138;28;98570;-63
2024/01/01 13:42:59;;;;;;;;;20.00;17.00;;;;;7.88;100.00;97816.06;6196180;28;98404;-64
2024/01/01 13:46:02;;;;;;;;;18.40;17.40;;;;;7.92;100.00;97830.66;6213393;28;96266;-60
2024/01/01 13:49:05;;;;;;;;;21.00;19.00;;;;;7.91;100.00;97826.38;6202009;28;96369;-60
2024/01/01 13:52:08;;;;;;;;;18.00;17.00;;;;;7.92;100.00;97827.97;6210975;28;97797;-60
2024/01/01 13:55:16;;;;;;;;;22.40;20.40;;;;;7.88;100.00;97824.94;6210601;28;96204;-63
2024/01/01 13:58:19;;;;;;;;;22.00;18.60;;;;;7.86;100.00;97831.59;6226966;28;96338;-60
2024/01/01 14:01:22;;;;;;;;;18.40;18.20;;;;;7.75;100.00;97823.28;6210986;28;96309;-59
2024/01/01 14:04:26;;;;;;;;;26.50;23.50;;;;;7.77;100.00;97821.19;6208168;28;96135;-60
2024/01/01 14:07:29;;;;;;;;;26.00;25.00;;;;;7.71;100.00;97818.63;6191852;28;99626;-59